Time;durP1;ratioP1;P1;durP2;ratioP2;P2;SDS_P1;SDS_P2;PMS_P1;PMS_P2;Temp;Humidity;BMP_temperature;BMP_pressure;BME280_temperature;BME280_humidity;BME280_pressure;Samples;Min_cycle;Max_cycle;Signal;HPM_P1;HPM_P2
2022/01/07 00:01:37;;;;;;;6.55;2.42;;;;;;;;;;6240559;28;20068;-64
2022/01/07 00:04:40;;;;;;;10.57;2.70;;;;;;;;;;6242127;28;20446;-64
2022/01/07 00:07:46;;;;;;;7.18;2.40;;;;;;;;;;6242500;28;20053;-64
2022/01/07 00:10:49;;;;;;;9.20;2.45;;;;;;;;;;6241994;28;20068;-64
2022/01/07 00:13:55;;;;;;;7.28;2.72;;;;;;;;;;6241789;28;20072;-64
2022/01/07 00:16:58;;;;;;;4.25;2.10;;;;;;;;;;6242387;28;20052;-64
2022/01/07 00:20:01;;;;;;;4.25;2.20;;;;;;;;;;6241867;28;20052;-64
2022/01/07 00:23:06;;;;;;;6.05;2.42;;;;;;;;;;6240279;28;20179;-64
2022/01/07 00:26:10;;;;;;;5.90;2.40;;;;;;;;;;6241960;28;20057;-64
2022/01/07 00:29:14;;;;;;;6.90;2.60;;;;;;;;;;6240746;28;20359;-64
2022/01/07 00:32:19;;;;;;;5.38;2.30;;;;;;;;;;6240326;28;20442;-64
2022/01/07 00:35:23;;;;;;;9.38;2.90;;;;;;;;;;6240196;28;20511;-65
2022/01/07 00:38:27;;;;;;;5.80;2.28;;;;;;;;;;6240782;28;20496;-64
2022/01/07 00:41:31;;;;;;;5.05;2.20;;;;;;;;;;6241471;28;20167;-64
2022/01/07 00:44:38;;;;;;;4.28;2.20;;;;;;;;;;6241462;28;20514;-64
2022/01/07 00:47:40;;;;;;;6.18;2.30;;;;;;;;;;6241662;28;20400;-64
2022/01/07 00:50:46;;;;;;;5.47;2.33;;;;;;;;;;6241816;28;20053;-64
2022/01/07 00:53:48;;;;;;;4.80;2.47;;;;;;;;;;6241700;28;20113;-64
2022/01/07 00:56:52;;;;;;;4.90;2.40;;;;;;;;;;6239983;28;20054;-64
2022/01/07 00:59:56;;;;;;;9.65;2.50;;;;;;;;;;6241966;28;20049;-64
2022/01/07 01:03:01;;;;;;;4.03;2.05;;;;;;;;;;6245376;28;20053;-64
2022/01/07 01:06:04;;;;;;;5.15;2.35;;;;;;;;;;6244182;28;20415;-64
2022/01/07 01:09:07;;;;;;;7.13;2.40;;;;;;;;;;6246195;28;20042;-64
2022/01/07 01:12:13;;;;;;;8.53;2.20;;;;;;;;;;6244582;28;20515;-64
2022/01/07 01:15:21;;;;;;;5.72;2.40;;;;;;;;;;6244389;28;20053;-64
2022/01/07 01:18:25;;;;;;;4.28;2.28;;;;;;;;;;6244031;28;20539;-65
2022/01/07 01:21:28;;;;;;;5.05;2.67;;;;;;;;;;6244453;28;20072;-65
2022/01/07 01:24:31;;;;;;;6.75;2.58;;;;;;;;;;6245322;28;20518;-62
2022/01/07 01:27:36;;;;;;;5.43;2.58;;;;;;;;;;6245231;28;20045;-62
2022/01/07 01:30:40;;;;;;;5.25;2.30;;;;;;;;;;6245527;28;20511;-63
2022/01/07 01:33:44;;;;;;;7.22;2.80;;;;;;;;;;6245309;28;20053;-64
2022/01/07 01:36:46;;;;;;;5.53;2.80;;;;;;;;;;6244851;28;20411;-65
2022/01/07 01:39:50;;;;;;;5.65;2.75;;;;;;;;;;6243539;28;20484;-63
2022/01/07 01:42:53;;;;;;;9.23;2.67;;;;;;;;;;6245669;28;20045;-62
2022/01/07 01:45:57;;;;;;;5.22;2.40;;;;;;;;;;6243591;28;20375;-63
2022/01/07 01:49:00;;;;;;;8.93;2.70;;;;;;;;;;6244840;28;20049;-63
2022/01/07 01:52:08;;;;;;;7.82;2.80;;;;;;;;;;6245266;28;20045;-63
2022/01/07 01:55:11;;;;;;;6.88;2.70;;;;;;;;;;6243465;28;20044;-64
2022/01/07 01:58:16;;;;;;;6.03;2.45;;;;;;;;;;6244894;28;20053;-63
2022/01/07 02:01:21;;;;;;;6.90;2.55;;;;;;;;;;6244617;28;20052;-64
2022/01/07 02:04:24;;;;;;;4.88;2.45;;;;;;;;;;6244910;28;20049;-64
2022/01/07 02:07:27;;;;;;;6.72;2.70;;;;;;;;;;6244357;28;20041;-63
2022/01/07 02:10:33;;;;;;;4.97;2.13;;;;;;;;;;6244181;28;20053;-63
2022/01/07 02:13:36;;;;;;;7.45;2.47;;;;;;;;;;6243128;28;20103;-63
2022/01/07 02:16:43;;;;;;;8.70;2.95;;;;;;;;;;6244238;28;20263;-63
2022/01/07 02:19:47;;;;;;;7.43;2.67;;;;;;;;;;6243916;28;20507;-63
2022/01/07 02:22:50;;;;;;;7.00;3.22;;;;;;;;;;6243696;28;20049;-63
2022/01/07 02:25:56;;;;;;;5.93;2.67;;;;;;;;;;6242906;28;20164;-64
2022/01/07 02:29:02;;;;;;;7.95;2.92;;;;;;;;;;6243861;28;20488;-63
2022/01/07 02:32:06;;;;;;;10.95;3.25;;;;;;;;;;6242317;28;20076;-63
2022/01/07 02:35:11;;;;;;;7.90;3.00;;;;;;;;;;6244354;28;20052;-63
2022/01/07 02:38:16;;;;;;;8.13;2.72;;;;;;;;;;6243652;28;20045;-64
2022/01/07 02:41:19;;;;;;;7.00;3.10;;;;;;;;;;6243313;28;20096;-63
2022/01/07 02:44:22;;;;;;;6.68;2.75;;;;;;;;;;6243666;28;20052;-63
2022/01/07 02:47:28;;;;;;;6.03;2.67;;;;;;;;;;6243531;28;20053;-64
2022/01/07 02:50:33;;;;;;;9.00;3.03;;;;;;;;;;6243328;28;20457;-63
2022/01/07 02:53:36;;;;;;;5.53;2.35;;;;;;;;;;6243306;28;20050;-64
2022/01/07 02:56:39;;;;;;;5.75;2.72;;;;;;;;;;6243568;28;20184;-62
2022/01/07 02:59:42;;;;;;;6.10;2.80;;;;;;;;;;6241782;28;20087;-64
2022/01/07 03:02:45;;;;;;;5.82;2.47;;;;;;;;;;6242946;28;20151;-63
2022/01/07 03:05:50;;;;;;;8.63;2.58;;;;;;;;;;6242051;28;20041;-62
2022/01/07 03:08:53;;;;;;;5.68;2.70;;;;;;;;;;6243202;28;20547;-63
2022/01/07 03:11:56;;;;;;;7.13;2.90;;;;;;;;;;6242696;28;20053;-63
2022/01/07 03:14:59;;;;;;;5.32;2.78;;;;;;;;;;6242859;28;20045;-63
2022/01/07 03:18:02;;;;;;;6.53;2.55;;;;;;;;;;6242128;28;20079;-63
2022/01/07 03:21:06;;;;;;;7.25;2.90;;;;;;;;;;6242655;28;20041;-63
2022/01/07 03:24:09;;;;;;;4.78;2.60;;;;;;;;;;6241733;28;20476;-63
2022/01/07 03:27:12;;;;;;;5.82;2.50;;;;;;;;;;6241718;28;20399;-63
2022/01/07 03:30:16;;;;;;;4.60;2.15;;;;;;;;;;6241245;28;20688;-63
2022/01/07 03:33:19;;;;;;;8.23;2.58;;;;;;;;;;6242817;28;20045;-63
2022/01/07 03:36:26;;;;;;;6.93;2.75;;;;;;;;;;6242791;28;20095;-63
2022/01/07 03:39:29;;;;;;;7.68;2.70;;;;;;;;;;6241251;28;20403;-63
2022/01/07 03:42:32;;;;;;;5.28;2.53;;;;;;;;;;6240997;28;20502;-63
2022/01/07 03:45:35;;;;;;;6.53;2.33;;;;;;;;;;6240756;28;20076;-62
2022/01/07 03:48:38;;;;;;;5.95;2.65;;;;;;;;;;6241417;28;20060;-63
2022/01/07 03:51:42;;;;;;;8.25;3.08;;;;;;;;;;6241952;28;20045;-62
2022/01/07 03:54:45;;;;;;;5.70;2.45;;;;;;;;;;6240778;28;20095;-62
2022/01/07 03:57:48;;;;;;;5.95;2.40;;;;;;;;;;6242294;28;20405;-63
2022/01/07 04:00:51;;;;;;;5.75;2.80;;;;;;;;;;6242279;28;20411;-62
2022/01/07 04:03:54;;;;;;;7.88;2.40;;;;;;;;;;6241950;28;20094;-62
2022/01/07 04:07:01;;;;;;;5.15;2.25;;;;;;;;;;6242214;28;20050;-63
2022/01/07 04:10:05;;;;;;;4.22;2.20;;;;;;;;;;6241119;28;20042;-62
2022/01/07 04:13:08;;;;;;;4.65;2.55;;;;;;;;;;6240484;28;20050;-63
2022/01/07 04:16:11;;;;;;;6.28;2.17;;;;;;;;;;6241885;28;20053;-63
2022/01/07 04:19:14;;;;;;;5.85;2.80;;;;;;;;;;6242268;28;20042;-65
2022/01/07 04:22:18;;;;;;;5.97;2.45;;;;;;;;;;6241921;28;20049;-62
2022/01/07 04:25:22;;;;;;;7.07;2.63;;;;;;;;;;6241696;28;20038;-62
2022/01/07 04:28:24;;;;;;;8.75;2.72;;;;;;;;;;6240558;28;20415;-62
2022/01/07 04:31:27;;;;;;;5.90;2.15;;;;;;;;;;6240952;28;20137;-63
2022/01/07 04:34:30;;;;;;;9.32;2.95;;;;;;;;;;6240605;28;20057;-63
2022/01/07 04:37:35;;;;;;;9.45;3.50;;;;;;;;;;6246282;28;20045;-63
2022/01/07 04:40:40;;;;;;;5.90;2.80;;;;;;;;;;6245690;28;20503;-63
2022/01/07 04:43:43;;;;;;;5.95;2.47;;;;;;;;;;6244919;28;20045;-64
2022/01/07 04:46:46;;;;;;;4.45;2.45;;;;;;;;;;6246192;28;20052;-64
2022/01/07 04:49:50;;;;;;;7.05;2.28;;;;;;;;;;6245045;28;20042;-64
2022/01/07 04:52:54;;;;;;;7.40;2.75;;;;;;;;;;6246317;28;20056;-64
2022/01/07 04:55:58;;;;;;;9.93;2.63;;;;;;;;;;6246013;28;20051;-64
2022/01/07 04:59:01;;;;;;;7.25;2.63;;;;;;;;;;6245904;28;20511;-64
2022/01/07 05:02:04;;;;;;;9.10;3.03;;;;;;;;;;6246346;28;20049;-64
2022/01/07 05:05:08;;;;;;;6.05;2.45;;;;;;;;;;6245670;28;20045;-65
2022/01/07 05:08:12;;;;;;;5.78;2.50;;;;;;;;;;6245715;28;20048;-65
2022/01/07 05:11:15;;;;;;;10.02;2.55;;;;;;;;;;6244767;28;20046;-64
2022/01/07 05:14:21;;;;;;;7.18;2.85;;;;;;;;;;6246597;28;20417;-65
2022/01/07 05:17:23;;;;;;;9.27;2.58;;;;;;;;;;6245257;28;20045;-64
2022/01/07 05:20:26;;;;;;;8.05;3.22;;;;;;;;;;6245243;28;20072;-64
2022/01/07 05:23:31;;;;;;;7.05;2.88;;;;;;;;;;6244347;28;20051;-64
2022/01/07 05:26:36;;;;;;;10.10;4.55;;;;;;;;;;6243985;28;20045;-64
2022/01/07 05:29:41;;;;;;;8.30;2.83;;;;;;;;;;6245200;28;20045;-65
2022/01/07 05:32:44;;;;;;;14.30;3.78;;;;;;;;;;6244427;28;20061;-65
2022/01/07 05:35:47;;;;;;;11.40;4.40;;;;;;;;;;6243861;28;20431;-64
2022/01/07 05:38:54;;;;;;;10.55;4.55;;;;;;;;;;6244976;28;20041;-64
2022/01/07 05:41:57;;;;;;;12.88;5.22;;;;;;;;;;6243659;28;20132;-64
2022/01/07 05:45:01;;;;;;;10.20;3.85;;;;;;;;;;6243826;28;20045;-64
2022/01/07 05:48:06;;;;;;;11.45;3.47;;;;;;;;;;6244024;28;20053;-64
2022/01/07 05:51:11;;;;;;;7.25;3.00;;;;;;;;;;6244498;28;20053;-64
2022/01/07 05:54:15;;;;;;;8.15;3.20;;;;;;;;;;6245147;28;20050;-63
2022/01/07 05:57:18;;;;;;;11.90;3.13;;;;;;;;;;6243591;28;20049;-65
2022/01/07 06:00:21;;;;;;;11.90;3.35;;;;;;;;;;6244248;28;20075;-63
2022/01/07 06:03:27;;;;;;;6.07;2.75;;;;;;;;;;6244707;28;20484;-66
2022/01/07 06:06:30;;;;;;;8.60;2.65;;;;;;;;;;6244789;28;20050;-62
2022/01/07 06:09:34;;;;;;;5.40;2.40;;;;;;;;;;6244168;28;20045;-65
2022/01/07 06:12:38;;;;;;;7.05;2.30;;;;;;;;;;6244039;28;20049;-65
2022/01/07 06:15:41;;;;;;;6.97;2.38;;;;;;;;;;6244688;28;20045;-63
2022/01/07 06:18:51;;;;;;;5.78;3.13;;;;;;;;;;6244542;28;20052;-63
2022/01/07 06:21:54;;;;;;;7.22;3.10;;;;;;;;;;6243883;28;20045;-64
2022/01/07 06:25:01;;;;;;;5.17;2.50;;;;;;;;;;6242768;28;20042;-63
2022/01/07 06:28:04;;;;;;;7.55;2.50;;;;;;;;;;6243717;28;20348;-65
2022/01/07 06:31:07;;;;;;;8.73;2.55;;;;;;;;;;6243666;28;20128;-65
2022/01/07 06:34:13;;;;;;;7.68;2.67;;;;;;;;;;6242454;28;20050;-65
2022/01/07 06:37:16;;;;;;;6.65;2.55;;;;;;;;;;6245070;28;20047;-65
2022/01/07 06:40:20;;;;;;;8.00;3.28;;;;;;;;;;6243285;28;20061;-65
2022/01/07 06:43:23;;;;;;;9.48;3.08;;;;;;;;;;6242039;28;20041;-65
2022/01/07 06:46:26;;;;;;;4.45;2.38;;;;;;;;;;6243612;28;20052;-65
2022/01/07 06:49:32;;;;;;;9.57;2.78;;;;;;;;;;6243467;28;20392;-65
2022/01/07 06:52:35;;;;;;;8.38;2.60;;;;;;;;;;6242153;28;20045;-64
2022/01/07 06:55:39;;;;;;;8.25;2.40;;;;;;;;;;6243063;28;20124;-65
2022/01/07 06:58:42;;;;;;;6.65;2.67;;;;;;;;;;6242537;28;20064;-69
2022/01/07 07:01:47;;;;;;;8.23;2.90;;;;;;;;;;6242884;28;20072;-65
2022/01/07 07:04:51;;;;;;;9.02;2.78;;;;;;;;;;6241625;28;20042;-65
2022/01/07 07:07:56;;;;;;;10.10;2.80;;;;;;;;;;6243506;28;20045;-65
2022/01/07 07:11:00;;;;;;;10.57;2.85;;;;;;;;;;6241278;28;20053;-64
2022/01/07 07:14:03;;;;;;;11.25;2.80;;;;;;;;;;6241138;28;20443;-65
2022/01/07 07:17:06;;;;;;;7.22;3.47;;;;;;;;;;6242629;28;20053;-65
2022/01/07 07:20:10;;;;;;;9.65;3.10;;;;;;;;;;6241532;28;20519;-64
2022/01/07 07:23:13;;;;;;;5.70;2.42;;;;;;;;;;6242600;28;20049;-63
2022/01/07 07:26:17;;;;;;;8.93;3.10;;;;;;;;;;6242424;28;20056;-65
2022/01/07 07:29:20;;;;;;;4.90;2.40;;;;;;;;;;6241728;28;20056;-65
2022/01/07 07:32:28;;;;;;;11.68;2.83;;;;;;;;;;6242314;28;20045;-65
2022/01/07 07:38:51;;;;;;;6.35;2.63;;;;;;;;;;6242448;28;20523;-63
2022/01/07 07:41:59;;;;;;;10.03;3.00;;;;;;;;;;6241135;28;20066;-65
2022/01/07 07:45:06;;;;;;;6.53;2.55;;;;;;;;;;6240887;28;20852;-65
2022/01/07 07:48:09;;;;;;;7.80;3.20;;;;;;;;;;6242087;28;20053;-65
2022/01/07 07:51:12;;;;;;;10.45;3.40;;;;;;;;;;6242520;28;20049;-63
2022/01/07 07:54:15;;;;;;;8.32;3.10;;;;;;;;;;6242407;28;20049;-65
2022/01/07 07:57:20;;;;;;;9.40;3.30;;;;;;;;;;6242039;28;20123;-65
2022/01/07 08:00:23;;;;;;;8.25;3.13;;;;;;;;;;6242060;28;20500;-65
2022/01/07 08:03:30;;;;;;;43.00;4.85;;;;;;;;;;6242519;28;20041;-64
2022/01/07 08:06:36;;;;;;;18.75;4.38;;;;;;;;;;6241744;28;20049;-63
2022/01/07 08:09:40;;;;;;;17.58;4.13;;;;;;;;;;6242565;28;20053;-64
2022/01/07 08:12:53;;;;;;;8.63;3.00;;;;;;;;;;6247510;28;20061;-64
2022/01/07 08:15:59;;;;;;;8.43;3.25;;;;;;;;;;6247750;28;20131;-64
2022/01/07 08:19:04;;;;;;;7.68;3.38;;;;;;;;;;6246830;28;20041;-63
2022/01/07 08:22:11;;;;;;;9.90;3.05;;;;;;;;;;6247025;28;20096;-65
2022/01/07 08:25:14;;;;;;;11.35;2.92;;;;;;;;;;6246996;28;20049;-64
2022/01/07 08:28:23;;;;;;;9.55;3.22;;;;;;;;;;6247233;28;20049;-64
2022/01/07 08:34:55;;;;;;;9.55;3.10;;;;;;;;;;6224937;28;20142;-65
2022/01/07 08:37:58;;;;;;;6.68;3.28;;;;;;;;;;6246967;28;20042;-66
2022/01/07 08:41:01;;;;;;;6.80;3.38;;;;;;;;;;6245930;28;20076;-66
2022/01/07 08:44:06;;;;;;;8.40;3.40;;;;;;;;;;6246369;28;20038;-64
2022/01/07 08:47:09;;;;;;;5.90;2.65;;;;;;;;;;6247007;28;20046;-64
2022/01/07 08:50:12;;;;;;;7.20;2.80;;;;;;;;;;6246043;28;20420;-65
2022/01/07 08:53:15;;;;;;;10.02;3.22;;;;;;;;;;6246126;28;20037;-63
2022/01/07 08:56:18;;;;;;;8.32;3.60;;;;;;;;;;6246630;28;20467;-65
2022/01/07 08:59:22;;;;;;;10.70;3.25;;;;;;;;;;6246211;28;20059;-66
2022/01/07 09:02:25;;;;;;;6.28;3.45;;;;;;;;;;6244461;28;20549;-66
2022/01/07 09:05:28;;;;;;;10.75;3.42;;;;;;;;;;6244494;28;20503;-65
2022/01/07 09:08:33;;;;;;;7.38;3.15;;;;;;;;;;6244981;28;20381;-65
2022/01/07 09:11:38;;;;;;;5.97;3.33;;;;;;;;;;6245718;28;20045;-63
2022/01/07 09:14:43;;;;;;;11.05;3.67;;;;;;;;;;6244258;28;20054;-63
2022/01/07 09:17:46;;;;;;;7.32;3.72;;;;;;;;;;6245647;28;20467;-64
2022/01/07 09:20:49;;;;;;;8.38;3.53;;;;;;;;;;6245231;28;20099;-65
2022/01/07 09:23:52;;;;;;;7.38;3.72;;;;;;;;;;6244601;28;20499;-65
2022/01/07 09:26:55;;;;;;;6.65;3.92;;;;;;;;;;6245384;28;20050;-65
2022/01/07 09:29:59;;;;;;;7.57;3.65;;;;;;;;;;6244333;28;20051;-64
2022/01/07 09:33:03;;;;;;;7.53;4.13;;;;;;;;;;6245017;28;20152;-65
2022/01/07 09:36:06;;;;;;;7.75;3.63;;;;;;;;;;6245137;28;20092;-64
2022/01/07 09:39:11;;;;;;;6.80;3.42;;;;;;;;;;6245636;28;20167;-64
2022/01/07 09:42:16;;;;;;;14.70;3.50;;;;;;;;;;6244637;28;20052;-64
2022/01/07 09:45:21;;;;;;;8.40;3.50;;;;;;;;;;6245076;28;20048;-65
2022/01/07 09:48:24;;;;;;;8.82;3.45;;;;;;;;;;6245576;28;20132;-64
2022/01/07 09:51:28;;;;;;;7.65;3.30;;;;;;;;;;6243726;28;20052;-64
2022/01/07 09:54:30;;;;;;;9.90;3.53;;;;;;;;;;6244760;28;20050;-64
2022/01/07 09:57:36;;;;;;;6.65;3.58;;;;;;;;;;6243573;28;20045;-63
2022/01/07 10:00:41;;;;;;;14.95;3.85;;;;;;;;;;6244923;28;20401;-64
2022/01/07 10:03:45;;;;;;;11.25;3.90;;;;;;;;;;6242981;28;20100;-64
2022/01/07 10:07:08;;;;;;;8.65;3.47;;;;;;;;;;6244514;28;20495;-64
2022/01/07 10:10:13;;;;;;;8.75;3.53;;;;;;;;;;6243073;28;20046;-64
2022/01/07 10:13:19;;;;;;;6.38;3.58;;;;;;;;;;6245130;28;20050;-65
2022/01/07 10:16:24;;;;;;;10.07;3.72;;;;;;;;;;6243996;28;20049;-64
2022/01/07 10:19:31;;;;;;;8.32;3.70;;;;;;;;;;6244274;28;20045;-64
2022/01/07 10:22:48;;;;;;;6.47;3.20;;;;;;;;;;6244394;28;20484;-66
2022/01/07 10:25:53;;;;;;;7.10;3.25;;;;;;;;;;6242830;28;20117;-64
2022/01/07 10:28:56;;;;;;;10.85;3.13;;;;;;;;;;6244182;28;20053;-66
2022/01/07 10:32:18;;;;;;;6.45;3.00;;;;;;;;;;6244299;28;20060;-65
2022/01/07 10:35:23;;;;;;;6.28;2.75;;;;;;;;;;6242893;28;20414;-65
2022/01/07 10:38:27;;;;;;;8.48;3.20;;;;;;;;;;6242242;28;20060;-65
2022/01/07 10:41:30;;;;;;;5.35;2.72;;;;;;;;;;6243972;28;20061;-65
2022/01/07 10:44:33;;;;;;;6.28;2.58;;;;;;;;;;6243738;28;20061;-65
2022/01/07 10:47:39;;;;;;;5.90;3.47;;;;;;;;;;6242367;28;20053;-65
2022/01/07 10:50:43;;;;;;;7.95;3.05;;;;;;;;;;6242006;28;20403;-66
2022/01/07 10:53:50;;;;;;;9.43;3.70;;;;;;;;;;6242067;28;20045;-65
2022/01/07 10:56:54;;;;;;;7.78;3.85;;;;;;;;;;6243735;28;20466;-65
2022/01/07 11:00:07;;;;;;;6.50;3.22;;;;;;;;;;6243130;28;20046;-65
2022/01/07 11:03:11;;;;;;;7.70;3.67;;;;;;;;;;6241923;28;20045;-65
2022/01/07 11:06:14;;;;;;;8.50;4.95;;;;;;;;;;6243239;28;20049;-65
2022/01/07 11:09:18;;;;;;;7.45;3.45;;;;;;;;;;6241929;28;20138;-65
2022/01/07 11:12:21;;;;;;;7.75;3.25;;;;;;;;;;6242843;28;20487;-63
2022/01/07 11:15:24;;;;;;;8.32;3.50;;;;;;;;;;6242901;28;20377;-63
2022/01/07 11:18:31;;;;;;;5.60;3.25;;;;;;;;;;6243191;28;20045;-63
2022/01/07 11:21:34;;;;;;;6.07;3.30;;;;;;;;;;6242193;28;20049;-64
2022/01/07 11:24:42;;;;;;;8.25;3.70;;;;;;;;;;6242577;28;20048;-62
2022/01/07 11:27:47;;;;;;;9.15;4.13;;;;;;;;;;6241338;28;20053;-64
2022/01/07 11:30:50;;;;;;;10.82;3.95;;;;;;;;;;6242630;28;20041;-63
2022/01/07 11:34:08;;;;;;;8.45;3.72;;;;;;;;;;6242437;28;20049;-63
2022/01/07 11:37:33;;;;;;;8.80;3.33;;;;;;;;;;6240784;28;20053;-64
2022/01/07 11:40:46;;;;;;;8.73;3.05;;;;;;;;;;6242004;28;20302;-64
2022/01/07 11:43:49;;;;;;;8.07;3.13;;;;;;;;;;6241057;28;20408;-64
2022/01/07 11:46:52;;;;;;;8.40;3.58;;;;;;;;;;6240274;28;20103;-65
2022/01/07 11:50:03;;;;;;;7.45;3.47;;;;;;;;;;6242541;28;20049;-64
2022/01/07 11:53:07;;;;;;;10.90;3.58;;;;;;;;;;6242614;28;20076;-64
2022/01/07 11:56:13;;;;;;;5.35;3.35;;;;;;;;;;6242004;28;20064;-64
2022/01/07 11:59:19;;;;;;;8.10;3.20;;;;;;;;;;6242267;28;20045;-64
2022/01/07 12:02:22;;;;;;;7.03;3.17;;;;;;;;;;6242301;28;20488;-64
2022/01/07 12:05:28;;;;;;;4.40;2.90;;;;;;;;;;6242049;28;20051;-65
2022/01/07 12:08:42;;;;;;;7.13;3.40;;;;;;;;;;6241701;28;20041;-64
2022/01/07 12:11:45;;;;;;;7.80;3.35;;;;;;;;;;6240821;28;20426;-64
2022/01/07 12:14:51;;;;;;;6.78;3.15;;;;;;;;;;6240908;28;20049;-64
2022/01/07 12:17:55;;;;;;;8.07;3.22;;;;;;;;;;6241686;28;20054;-64
2022/01/07 12:20:58;;;;;;;7.28;3.63;;;;;;;;;;6241958;28;20488;-64
2022/01/07 12:24:07;;;;;;;5.60;3.27;;;;;;;;;;6240642;28;20038;-65
2022/01/07 12:27:11;;;;;;;5.43;3.10;;;;;;;;;;6242066;28;20045;-64
2022/01/07 12:30:16;;;;;;;;;;;;;;;;;;6240656;28;20435;-64
2022/01/07 12:33:19;;;;;;;8.40;3.10;;;;;;;;;;6240451;28;19921;-65
2022/01/07 12:36:25;;;;;;;6.40;2.95;;;;;;;;;;6242128;28;20049;-64
2022/01/07 12:39:33;;;;;;;6.15;3.10;;;;;;;;;;6241259;28;20045;-64
2022/01/07 12:42:43;;;;;;;6.32;3.30;;;;;;;;;;6241865;28;20191;-64
2022/01/07 12:45:54;;;;;;;8.32;3.00;;;;;;;;;;6241704;28;20562;-64
2022/01/07 12:49:00;;;;;;;7.57;3.33;;;;;;;;;;6240506;28;20072;-64
2022/01/07 12:52:04;;;;;;;5.93;2.92;;;;;;;;;;6241143;28;20053;-64
2022/01/07 12:55:09;;;;;;;6.75;3.33;;;;;;;;;;6240434;28;20167;-65
2022/01/07 12:58:12;;;;;;;6.65;2.90;;;;;;;;;;6246495;28;20049;-64
2022/01/07 13:01:22;;;;;;;5.60;3.05;;;;;;;;;;6245964;28;20057;-64
2022/01/07 13:04:25;;;;;;;5.75;2.60;;;;;;;;;;6244693;28;20049;-64
2022/01/07 13:07:28;;;;;;;10.20;3.33;;;;;;;;;;6245825;28;20041;-64
2022/01/07 13:10:33;;;;;;;8.18;3.38;;;;;;;;;;6246301;28;20373;-64
2022/01/07 13:13:36;;;;;;;7.10;3.85;;;;;;;;;;6245424;28;20049;-64
2022/01/07 13:16:42;;;;;;;12.48;3.70;;;;;;;;;;6244453;28;20475;-64
2022/01/07 13:19:45;;;;;;;8.23;4.30;;;;;;;;;;6245688;28;20053;-64
2022/01/07 13:22:48;;;;;;;6.35;3.45;;;;;;;;;;6243951;28;20056;-63
2022/01/07 13:25:58;;;;;;;6.10;3.50;;;;;;;;;;6246633;28;20056;-65
2022/01/07 13:29:14;;;;;;;4.75;2.70;;;;;;;;;;6245551;28;20045;-65
2022/01/07 13:32:20;;;;;;;6.20;3.08;;;;;;;;;;6244370;28;20052;-64
2022/01/07 13:35:26;;;;;;;7.75;3.35;;;;;;;;;;6244898;28;20046;-64
2022/01/07 13:38:32;;;;;;;6.43;3.17;;;;;;;;;;6243995;28;20045;-64
2022/01/07 13:41:51;;;;;;;4.72;3.03;;;;;;;;;;6243709;28;20175;-64
2022/01/07 13:44:55;;;;;;;9.32;3.30;;;;;;;;;;6243871;28;20052;-64
2022/01/07 13:48:03;;;;;;;6.82;2.80;;;;;;;;;;6244623;28;20045;-64
2022/01/07 13:51:09;;;;;;;6.10;3.13;;;;;;;;;;6245007;28;20051;-64
2022/01/07 13:54:14;;;;;;;7.57;3.15;;;;;;;;;;6243915;28;20045;-64
2022/01/07 13:57:18;;;;;;;7.57;3.13;;;;;;;;;;6243362;28;20132;-64
2022/01/07 14:00:23;;;;;;;10.02;3.75;;;;;;;;;;6245088;28;20046;-64
2022/01/07 14:03:47;;;;;;;5.70;3.05;;;;;;;;;;6243749;28;20053;-65
2022/01/07 14:06:52;;;;;;;6.65;3.50;;;;;;;;;;6244944;28;20488;-64
2022/01/07 14:10:05;;;;;;;9.40;3.20;;;;;;;;;;6242265;28;20100;-64
2022/01/07 14:13:15;;;;;;;8.02;3.22;;;;;;;;;;6244542;28;20400;-64
2022/01/07 14:16:23;;;;;;;10.30;3.53;;;;;;;;;;6244646;28;20049;-64
2022/01/07 14:19:26;;;;;;;7.85;3.55;;;;;;;;;;6244269;28;20080;-64
2022/01/07 14:22:29;;;;;;;8.07;3.30;;;;;;;;;;6244280;28;20346;-64
2022/01/07 14:25:32;;;;;;;7.90;3.58;;;;;;;;;;6242836;28;20057;-64
2022/01/07 14:28:42;;;;;;;8.63;4.13;;;;;;;;;;6244316;28;20046;-64
2022/01/07 14:31:45;;;;;;;7.90;3.85;;;;;;;;;;6242277;28;20507;-64
2022/01/07 14:34:48;;;;;;;11.90;3.78;;;;;;;;;;6244146;28;20529;-64
2022/01/07 14:37:51;;;;;;;5.78;3.25;;;;;;;;;;6243905;28;20053;-64
2022/01/07 14:40:57;;;;;;;10.65;3.67;;;;;;;;;;6242278;28;20084;-64
2022/01/07 14:44:01;;;;;;;12.48;3.80;;;;;;;;;;6243652;28;20049;-64
2022/01/07 14:47:24;;;;;;;8.27;4.00;;;;;;;;;;6243694;28;20046;-64
2022/01/07 14:50:30;;;;;;;12.82;4.13;;;;;;;;;;6242331;28;20438;-64
2022/01/07 14:53:33;;;;;;;10.23;4.20;;;;;;;;;;6243591;28;20060;-64
2022/01/07 14:56:36;;;;;;;17.55;6.00;;;;;;;;;;6243587;28;20053;-64
2022/01/07 14:59:41;;;;;;;10.23;3.97;;;;;;;;;;6243371;28;20050;-64
2022/01/07 15:02:44;;;;;;;9.33;3.63;;;;;;;;;;6241937;28;20049;-64
2022/01/07 15:05:47;;;;;;;11.85;3.92;;;;;;;;;;6241681;28;20064;-64
2022/01/07 15:08:50;;;;;;;8.52;3.65;;;;;;;;;;6242902;28;20041;-64
2022/01/07 15:11:54;;;;;;;10.13;4.25;;;;;;;;;;6243340;28;20052;-65
2022/01/07 15:14:59;;;;;;;10.25;4.00;;;;;;;;;;6241049;28;20046;-64
2022/01/07 15:18:02;;;;;;;6.55;3.58;;;;;;;;;;6243090;28;20049;-64
2022/01/07 15:21:05;;;;;;;6.15;3.65;;;;;;;;;;6240589;28;20049;-64
2022/01/07 15:24:08;;;;;;;10.18;3.83;;;;;;;;;;6242431;28;20056;-64
2022/01/07 15:27:11;;;;;;;10.27;4.55;;;;;;;;;;6241459;28;20107;-65
2022/01/07 15:30:16;;;;;;;8.82;4.20;;;;;;;;;;6242511;28;20049;-64
2022/01/07 15:33:19;;;;;;;8.48;3.70;;;;;;;;;;6242903;28;20878;-64
2022/01/07 15:36:22;;;;;;;12.68;4.35;;;;;;;;;;6241742;28;20483;-64
2022/01/07 15:39:25;;;;;;;9.10;4.30;;;;;;;;;;6242795;28;20420;-64
2022/01/07 15:42:27;;;;;;;12.63;4.40;;;;;;;;;;6242677;28;20377;-65
2022/01/07 15:45:32;;;;;;;9.52;4.18;;;;;;;;;;6242136;28;20049;-64
2022/01/07 15:48:37;;;;;;;13.93;5.30;;;;;;;;;;6242429;28;20503;-64
2022/01/07 15:51:59;;;;;;;12.20;4.60;;;;;;;;;;6242607;28;20049;-65
2022/01/07 15:55:01;;;;;;;11.32;5.03;;;;;;;;;;6241369;28;20045;-64
2022/01/07 15:58:04;;;;;;;13.18;4.47;;;;;;;;;;6241470;28;20047;-64
2022/01/07 16:01:09;;;;;;;13.93;5.85;;;;;;;;;;6242367;28;20072;-64
2022/01/07 16:04:12;;;;;;;9.88;4.75;;;;;;;;;;6242399;28;20053;-63
2022/01/07 16:07:15;;;;;;;12.20;4.78;;;;;;;;;;6241881;28;20053;-64
2022/01/07 16:10:18;;;;;;;13.27;5.47;;;;;;;;;;6242140;28;20439;-63
2022/01/07 16:13:21;;;;;;;29.02;9.68;;;;;;;;;;6241892;28;20045;-64
2022/01/07 16:16:26;;;;;;;10.85;4.50;;;;;;;;;;6240721;28;20048;-64
2022/01/07 16:19:29;;;;;;;12.98;4.75;;;;;;;;;;6241567;28;20045;-64
2022/01/07 16:22:32;;;;;;;11.25;4.88;;;;;;;;;;6241894;28;20050;-63
2022/01/07 16:25:39;;;;;;;10.30;4.78;;;;;;;;;;6242217;28;20385;-64
2022/01/07 16:28:43;;;;;;;13.13;4.70;;;;;;;;;;6241437;28;20049;-65
2022/01/07 16:31:47;;;;;;;10.45;5.43;;;;;;;;;;6244211;28;20168;-64
2022/01/07 16:34:50;;;;;;;14.20;5.75;;;;;;;;;;6245331;28;20048;-64
2022/01/07 16:37:53;;;;;;;13.80;5.97;;;;;;;;;;6246568;28;20041;-64
2022/01/07 16:40:56;;;;;;;13.30;5.80;;;;;;;;;;6246362;28;20553;-64
2022/01/07 16:44:02;;;;;;;12.75;6.18;;;;;;;;;;6246769;28;20509;-63
2022/01/07 16:47:06;;;;;;;16.98;6.30;;;;;;;;;;6246909;28;20267;-64
2022/01/07 16:50:10;;;;;;;13.85;6.50;;;;;;;;;;6245710;28;20051;-64
2022/01/07 16:53:15;;;;;;;10.65;5.32;;;;;;;;;;6245275;28;20388;-64
2022/01/07 16:56:18;;;;;;;11.13;5.10;;;;;;;;;;6244919;28;20048;-64
2022/01/07 16:59:23;;;;;;;12.18;4.53;;;;;;;;;;6245988;28;20049;-63
2022/01/07 17:02:28;;;;;;;10.68;4.45;;;;;;;;;;6244821;28;20095;-65
2022/01/07 17:05:31;;;;;;;12.13;4.63;;;;;;;;;;6244546;28;20042;-62
2022/01/07 17:08:34;;;;;;;10.23;4.70;;;;;;;;;;6244819;28;20127;-63
2022/01/07 17:11:42;;;;;;;8.48;4.30;;;;;;;;;;6245419;28;20053;-63
2022/01/07 17:14:45;;;;;;;7.82;4.07;;;;;;;;;;6245924;28;20058;-63
2022/01/07 17:17:49;;;;;;;11.05;4.47;;;;;;;;;;6244404;28;20068;-63
2022/01/07 17:20:52;;;;;;;9.82;4.03;;;;;;;;;;6245276;28;20175;-63
2022/01/07 17:23:58;;;;;;;13.23;4.67;;;;;;;;;;6244649;28;20119;-63
2022/01/07 17:27:00;;;;;;;10.88;5.07;;;;;;;;;;6245356;28;20476;-63
2022/01/07 17:30:04;;;;;;;11.27;4.95;;;;;;;;;;6245611;28;20048;-63
2022/01/07 17:33:08;;;;;;;13.07;5.53;;;;;;;;;;6243590;28;20472;-64
2022/01/07 17:36:13;;;;;;;12.98;5.53;;;;;;;;;;6245403;28;20049;-64
2022/01/07 17:39:16;;;;;;;13.05;5.00;;;;;;;;;;6244275;28;20263;-63
2022/01/07 17:42:19;;;;;;;11.60;4.40;;;;;;;;;;6244064;28;20049;-64
2022/01/07 17:45:25;;;;;;;12.27;4.93;;;;;;;;;;6245171;28;20119;-64
2022/01/07 17:48:30;;;;;;;11.07;4.90;;;;;;;;;;6245373;28;20053;-64
2022/01/07 17:51:33;;;;;;;14.70;5.85;;;;;;;;;;6244948;28;20124;-63
2022/01/07 17:54:37;;;;;;;12.48;4.88;;;;;;;;;;6244789;28;20042;-64
2022/01/07 17:57:42;;;;;;;17.73;5.50;;;;;;;;;;6243630;28;20353;-64
2022/01/07 18:00:45;;;;;;;13.15;5.95;;;;;;;;;;6245177;28;20052;-63
2022/01/07 18:03:49;;;;;;;14.52;5.05;;;;;;;;;;6244313;28;20097;-63
2022/01/07 18:06:52;;;;;;;11.88;5.95;;;;;;;;;;6244859;28;20049;-63
2022/01/07 18:09:58;;;;;;;15.32;6.53;;;;;;;;;;6244637;28;20060;-63
2022/01/07 18:13:02;;;;;;;14.25;6.30;;;;;;;;;;6244423;28;20579;-63
2022/01/07 18:16:06;;;;;;;11.73;5.60;;;;;;;;;;6243032;28;20068;-62
2022/01/07 18:19:10;;;;;;;13.70;6.50;;;;;;;;;;6244449;28;20052;-64
2022/01/07 18:22:15;;;;;;;15.07;5.88;;;;;;;;;;6244861;28;20041;-64
2022/01/07 18:25:20;;;;;;;10.80;5.38;;;;;;;;;;6243805;28;20045;-64
2022/01/07 18:28:43;;;;;;;13.82;6.50;;;;;;;;;;6244295;28;20385;-64
2022/01/07 18:31:46;;;;;;;13.60;5.35;;;;;;;;;;6242752;28;20053;-63